首页
METAR-TAF:

METAR-TAF

机场 :

巴爾的摩, 马里兰州, 美国

纬度: 39-20N, 经度: 076-25W, 海拔: 7米

当前天气观测

该预报发布于29分钟前的07:03 UTC
风速16节,风向西转西北,有时为27节阵风
温度 21°C
湿度 94%
气压 1008 hPa
能見度: 4.0公里
散云层高于800英尺
多云层高于1400英尺
阴天层高于1800英尺
大雨

METAR: KMTN 230703Z AUTO 30016G27KT 2 1/2SM +RA SCT008 BKN014 OVC018 21/20 A2976 RMK AO2 P0007

时间: 03:32 (07:32 UTC)

预报

该预报发布于1小时和55分钟前的05:37 UTC
预报有效从23日的 06点(UTC)到 24日的 06点(UTC)
风速3节,风向多变
能見度: 10公里
阴天层高于5000英尺
短暂存在
从 23日的 06点(UTC)到 23日的 07点(UTC)
风速30节,风向西
能見度: 1.6公里
大阵雨
从 23日的 0700点(UTC)
风速8节,风向西北,有时为16节阵风
能見度: 9.7公里
多云层高于1500英尺
阴天层高于5000英尺
小阵雨
从 23日的 1000点(UTC)
风速7节,风向西北
能見度: 10公里
散云层高于2500英尺
阴天层高于5000英尺
小阵雨
从 23日的 1700点(UTC)
风速4节,风向西转西北
能見度: 10公里
散云层高于3000英尺
多云层高于5000英尺
多云层高于13000英尺
从 23日的 2200点(UTC)
风速4节,风向西转西北
能見度: 10公里
散云层高于5000英尺
多云层高于13000英尺
从 24日的 0000点(UTC)
风速6节,风向
能見度: 10公里
散云层高于7000英尺

TAF: KMTN 230537Z 2306/2406 VRB03KT P6SM OVC050 TEMPO 2306/2307 27030KT 1SM +SHRA FM230700 31008G16KT 6SM -SHRA BKN015 OVC050 FM231000 32007KT P6SM -SHRA SCT025 OVC050 FM231700 29004KT P6SM SCT030 BKN050 BKN130 FM232200 29004KT P6SM SCT050 BKN130 FM240000 35006KT P6SM SCT070 AMD NOT SKED

超过4000个机场的气象观测和天气预报(METAR&TAF报告)。

可查询的气象台以黄色和红色小点在地图上表示。

将鼠标移到小点上方,可查看气象台名称。

然后点击查看天气观测和预报。

如需切换地图:点击带黑十字的绿色按钮放大地图;点击带横线的绿色按钮缩小地图;或者点击绿色箭头查看邻近地区的地图。


METAR-TAF: